To NAV CANADA Home Page Login to a new session Search on AWWS site Disclaimer Vers la page française équivalente Tips FAQ What's new on the site To the Forecasts and Observations / NOTAM section To "File a Flight Plan" website Publications and other links Update of the User's profile FIC Telephone Numbers My Weather Data Folder Route Weather Data Regional Weather Data Local Weather Data To the Forecasts and Observations / NOTAM section
Request Generated 04/24/2019 at 16:16:14 UTC . Weather information available at that time is displayed.

METAR/TAF

EARLTON/EARLTON (TIMISKAMING REGIONAL)/ON    (show WxCam)

METAR CYXR 241600Z AUTO 32007KT 9SM OVC011 03/01 A2992 RMK ICG MISG SLP145=
METAR CYXR 241500Z AUTO 33011G16KT 9SM OVC011 02/01 A2991 RMK ICG MISG SLP143=
SPECI CYXR 241432Z AUTO 33013KT 9SM OVC011 02/01 A2990 RMK ICG MISG SLP138=
METAR CYXR 241400Z AUTO 32011G16KT 9SM OVC009 02/01 A2989 RMK ICG MISG SLP136=

TAF CYXR 241138Z 2412/2424 33010G20KT P6SM OVC007 TEMPO 2412/2415
OVC012
FM241500 33012KT P6SM BKN012 TEMPO 2415/2420 BKN025
FM242000 34005KT P6SM BKN025
RMK FCST BASED ON AUTO OBS. NXT FCST BY 241800Z=
Your time UTC time
Weather data provided by Environment Canada and NAV CANADA